sensor_id;sensor_type;location;lat;lon;timestamp;P1;durP1;ratioP1;P2;durP2;ratioP2
26965;SDS011;14522;52.068;4.414;2022-12-20T00:01:15;4.03;;;2.20;;
26965;SDS011;14522;52.068;4.414;2022-12-20T00:03:50;3.42;;;1.80;;
26965;SDS011;14522;52.068;4.414;2022-12-20T00:06:16;6.53;;;2.17;;
26965;SDS011;14522;52.068;4.414;2022-12-20T00:08:46;4.60;;;2.22;;
26965;SDS011;14522;52.068;4.414;2022-12-20T00:11:14;6.35;;;1.60;;
26965;SDS011;14522;52.068;4.414;2022-12-20T00:13:40;5.05;;;2.03;;
26965;SDS011;14522;52.068;4.414;2022-12-20T00:16:17;4.97;;;2.17;;
26965;SDS011;14522;52.068;4.414;2022-12-20T00:18:46;5.05;;;1.90;;
26965;SDS011;14522;52.068;4.414;2022-12-20T00:21:13;6.38;;;2.25;;
26965;SDS011;14522;52.068;4.414;2022-12-20T00:23:40;5.22;;;1.75;;
26965;SDS011;14522;52.068;4.414;2022-12-20T00:26:08;4.35;;;1.83;;
26965;SDS011;14522;52.068;4.414;2022-12-20T00:28:38;3.55;;;1.75;;
26965;SDS011;14522;52.068;4.414;2022-12-20T00:31:04;4.28;;;1.98;;
26965;SDS011;14522;52.068;4.414;2022-12-20T00:33:35;5.15;;;2.10;;
26965;SDS011;14522;52.068;4.414;2022-12-20T00:36:03;2.47;;;1.60;;
26965;SDS011;14522;52.068;4.414;2022-12-20T00:38:30;6.68;;;1.70;;
26965;SDS011;14522;52.068;4.414;2022-12-20T00:40:58;3.75;;;1.60;;
26965;SDS011;14522;52.068;4.414;2022-12-20T00:43:24;4.85;;;1.98;;
26965;SDS011;14522;52.068;4.414;2022-12-20T00:45:54;5.15;;;2.03;;
26965;SDS011;14522;52.068;4.414;2022-12-20T00:48:21;5.35;;;1.60;;
26965;SDS011;14522;52.068;4.414;2022-12-20T00:50:49;5.55;;;2.00;;
26965;SDS011;14522;52.068;4.414;2022-12-20T00:53:18;3.90;;;1.88;;
26965;SDS011;14522;52.068;4.414;2022-12-20T00:55:51;4.78;;;1.85;;
26965;SDS011;14522;52.068;4.414;2022-12-20T00:58:18;2.97;;;1.77;;
26965;SDS011;14522;52.068;4.414;2022-12-20T01:00:48;6.05;;;2.45;;
26965;SDS011;14522;52.068;4.414;2022-12-20T01:03:21;3.70;;;2.05;;
26965;SDS011;14522;52.068;4.414;2022-12-20T01:05:49;4.82;;;2.03;;
26965;SDS011;14522;52.068;4.414;2022-12-20T01:08:19;4.75;;;2.10;;
26965;SDS011;14522;52.068;4.414;2022-12-20T01:10:46;3.47;;;2.13;;
26965;SDS011;14522;52.068;4.414;2022-12-20T01:13:13;6.97;;;1.85;;
26965;SDS011;14522;52.068;4.414;2022-12-20T01:15:39;6.25;;;1.77;;
26965;SDS011;14522;52.068;4.414;2022-12-20T01:18:06;4.10;;;1.70;;
26965;SDS011;14522;52.068;4.414;2022-12-20T01:20:32;6.63;;;2.17;;
26965;SDS011;14522;52.068;4.414;2022-12-20T01:22:59;4.75;;;1.55;;
26965;SDS011;14522;52.068;4.414;2022-12-20T01:25:28;5.32;;;2.03;;
26965;SDS011;14522;52.068;4.414;2022-12-20T01:27:57;8.20;;;2.03;;
26965;SDS011;14522;52.068;4.414;2022-12-20T01:30:31;4.25;;;2.10;;
26965;SDS011;14522;52.068;4.414;2022-12-20T01:32:57;5.57;;;1.83;;
26965;SDS011;14522;52.068;4.414;2022-12-20T01:35:28;6.90;;;1.90;;
26965;SDS011;14522;52.068;4.414;2022-12-20T01:37:55;4.82;;;2.20;;
26965;SDS011;14522;52.068;4.414;2022-12-20T01:40:21;5.53;;;1.90;;
26965;SDS011;14522;52.068;4.414;2022-12-20T01:42:55;3.65;;;1.67;;
26965;SDS011;14522;52.068;4.414;2022-12-20T01:45:26;4.45;;;1.80;;
26965;SDS011;14522;52.068;4.414;2022-12-20T01:47:56;6.70;;;1.75;;
26965;SDS011;14522;52.068;4.414;2022-12-20T01:50:24;5.00;;;1.73;;
26965;SDS011;14522;52.068;4.414;2022-12-20T01:52:51;3.95;;;1.67;;
26965;SDS011;14522;52.068;4.414;2022-12-20T01:55:22;3.20;;;1.50;;
26965;SDS011;14522;52.068;4.414;2022-12-20T01:57:56;4.40;;;1.85;;
26965;SDS011;14522;52.068;4.414;2022-12-20T02:00:26;4.93;;;1.90;;
26965;SDS011;14522;52.068;4.414;2022-12-20T02:03:00;5.30;;;1.63;;
26965;SDS011;14522;52.068;4.414;2022-12-20T02:05:33;4.85;;;1.65;;
26965;SDS011;14522;52.068;4.414;2022-12-20T02:08:15;3.50;;;1.85;;
26965;SDS011;14522;52.068;4.414;2022-12-20T02:13:16;4.35;;;1.48;;
26965;SDS011;14522;52.068;4.414;2022-12-20T02:15:54;5.25;;;1.90;;
26965;SDS011;14522;52.068;4.414;2022-12-20T02:23:54;4.20;;;1.75;;
26965;SDS011;14522;52.068;4.414;2022-12-20T02:32:07;5.50;;;1.77;;
26965;SDS011;14522;52.068;4.414;2022-12-20T02:34:38;4.10;;;1.85;;
26965;SDS011;14522;52.068;4.414;2022-12-20T02:37:09;6.10;;;2.05;;
26965;SDS011;14522;52.068;4.414;2022-12-20T02:39:38;3.08;;;1.50;;
26965;SDS011;14522;52.068;4.414;2022-12-20T02:42:06;4.72;;;2.10;;
26965;SDS011;14522;52.068;4.414;2022-12-20T02:44:33;5.65;;;2.20;;
26965;SDS011;14522;52.068;4.414;2022-12-20T02:47:20;4.80;;;2.22;;
26965;SDS011;14522;52.068;4.414;2022-12-20T02:49:51;7.53;;;2.20;;
26965;SDS011;14522;52.068;4.414;2022-12-20T02:52:19;5.00;;;2.42;;
26965;SDS011;14522;52.068;4.414;2022-12-20T02:54:46;7.22;;;2.17;;
26965;SDS011;14522;52.068;4.414;2022-12-20T02:57:15;5.43;;;2.00;;
26965;SDS011;14522;52.068;4.414;2022-12-20T02:59:48;6.70;;;2.08;;
26965;SDS011;14522;52.068;4.414;2022-12-20T03:02:15;3.83;;;1.90;;
26965;SDS011;14522;52.068;4.414;2022-12-20T03:04:47;3.03;;;1.55;;
26965;SDS011;14522;52.068;4.414;2022-12-20T03:07:14;3.70;;;1.60;;
26965;SDS011;14522;52.068;4.414;2022-12-20T03:09:43;6.60;;;2.10;;
26965;SDS011;14522;52.068;4.414;2022-12-20T03:12:10;4.53;;;2.10;;
26965;SDS011;14522;52.068;4.414;2022-12-20T03:14:39;5.07;;;1.75;;
26965;SDS011;14522;52.068;4.414;2022-12-20T03:17:13;3.40;;;1.70;;
26965;SDS011;14522;52.068;4.414;2022-12-20T03:19:40;2.78;;;1.60;;
26965;SDS011;14522;52.068;4.414;2022-12-20T03:22:09;3.20;;;1.95;;
26965;SDS011;14522;52.068;4.414;2022-12-20T03:24:35;3.28;;;1.52;;
26965;SDS011;14522;52.068;4.414;2022-12-20T03:27:05;4.97;;;2.13;;
26965;SDS011;14522;52.068;4.414;2022-12-20T03:29:31;3.00;;;1.75;;
26965;SDS011;14522;52.068;4.414;2022-12-20T03:32:02;5.20;;;1.90;;
26965;SDS011;14522;52.068;4.414;2022-12-20T03:34:31;5.18;;;2.03;;
26965;SDS011;14522;52.068;4.414;2022-12-20T03:36:57;4.80;;;1.83;;
26965;SDS011;14522;52.068;4.414;2022-12-20T03:39:24;3.20;;;1.70;;
26965;SDS011;14522;52.068;4.414;2022-12-20T03:42:06;4.97;;;1.60;;
26965;SDS011;14522;52.068;4.414;2022-12-20T03:44:32;4.57;;;1.75;;
26965;SDS011;14522;52.068;4.414;2022-12-20T03:47:04;4.57;;;1.60;;
26965;SDS011;14522;52.068;4.414;2022-12-20T03:49:36;6.15;;;1.38;;
26965;SDS011;14522;52.068;4.414;2022-12-20T03:52:06;5.72;;;1.92;;
26965;SDS011;14522;52.068;4.414;2022-12-20T03:54:33;7.30;;;2.22;;
26965;SDS011;14522;52.068;4.414;2022-12-20T03:57:18;5.05;;;1.83;;
26965;SDS011;14522;52.068;4.414;2022-12-20T03:59:45;4.18;;;1.58;;
26965;SDS011;14522;52.068;4.414;2022-12-20T04:02:20;7.83;;;1.80;;
26965;SDS011;14522;52.068;4.414;2022-12-20T04:04:48;5.68;;;2.03;;
26965;SDS011;14522;52.068;4.414;2022-12-20T04:07:14;5.18;;;2.28;;
26965;SDS011;14522;52.068;4.414;2022-12-20T04:09:42;4.75;;;1.77;;
26965;SDS011;14522;52.068;4.414;2022-12-20T04:12:09;3.95;;;1.88;;
26965;SDS011;14522;52.068;4.414;2022-12-20T04:14:40;4.25;;;2.08;;
26965;SDS011;14522;52.068;4.414;2022-12-20T04:17:20;3.92;;;1.90;;
26965;SDS011;14522;52.068;4.414;2022-12-20T04:19:47;5.90;;;1.70;;
26965;SDS011;14522;52.068;4.414;2022-12-20T04:22:13;3.40;;;1.70;;
26965;SDS011;14522;52.068;4.414;2022-12-20T04:24:45;4.10;;;1.60;;
26965;SDS011;14522;52.068;4.414;2022-12-20T04:27:12;5.43;;;1.80;;
26965;SDS011;14522;52.068;4.414;2022-12-20T04:29:41;5.10;;;2.00;;
26965;SDS011;14522;52.068;4.414;2022-12-20T04:32:16;4.18;;;1.60;;
26965;SDS011;14522;52.068;4.414;2022-12-20T04:34:50;5.15;;;2.03;;
26965;SDS011;14522;52.068;4.414;2022-12-20T04:37:19;5.63;;;2.13;;
26965;SDS011;14522;52.068;4.414;2022-12-20T04:39:54;5.53;;;2.08;;
26965;SDS011;14522;52.068;4.414;2022-12-20T04:42:22;5.35;;;2.05;;
26965;SDS011;14522;52.068;4.414;2022-12-20T04:44:50;3.70;;;1.85;;
26965;SDS011;14522;52.068;4.414;2022-12-20T04:47:21;6.20;;;2.17;;
26965;SDS011;14522;52.068;4.414;2022-12-20T04:49:48;3.60;;;1.75;;
26965;SDS011;14522;52.068;4.414;2022-12-20T04:52:15;3.45;;;1.80;;
26965;SDS011;14522;52.068;4.414;2022-12-20T04:55:12;8.50;;;2.28;;
26965;SDS011;14522;52.068;4.414;2022-12-20T04:57:44;5.22;;;2.22;;
26965;SDS011;14522;52.068;4.414;2022-12-20T05:00:10;3.35;;;1.83;;
26965;SDS011;14522;52.068;4.414;2022-12-20T05:02:37;3.88;;;1.77;;
26965;SDS011;14522;52.068;4.414;2022-12-20T05:05:09;5.20;;;1.90;;
26965;SDS011;14522;52.068;4.414;2022-12-20T05:07:37;3.47;;;1.58;;
26965;SDS011;14522;52.068;4.414;2022-12-20T05:10:03;4.38;;;2.03;;
26965;SDS011;14522;52.068;4.414;2022-12-20T05:12:30;4.53;;;1.80;;
26965;SDS011;14522;52.068;4.414;2022-12-20T05:14:57;3.55;;;1.92;;
26965;SDS011;14522;52.068;4.414;2022-12-20T05:17:24;5.70;;;2.28;;
26965;SDS011;14522;52.068;4.414;2022-12-20T05:19:51;4.75;;;1.42;;
26965;SDS011;14522;52.068;4.414;2022-12-20T05:22:19;6.97;;;2.10;;
26965;SDS011;14522;52.068;4.414;2022-12-20T05:25:05;4.78;;;1.90;;
26965;SDS011;14522;52.068;4.414;2022-12-20T05:27:50;5.97;;;1.97;;
26965;SDS011;14522;52.068;4.414;2022-12-20T05:30:17;5.22;;;2.15;;
26965;SDS011;14522;52.068;4.414;2022-12-20T05:32:46;2.75;;;1.60;;
26965;SDS011;14522;52.068;4.414;2022-12-20T05:35:13;3.63;;;1.80;;
26965;SDS011;14522;52.068;4.414;2022-12-20T05:37:39;3.50;;;1.55;;
26965;SDS011;14522;52.068;4.414;2022-12-20T05:40:12;4.35;;;1.60;;
26965;SDS011;14522;52.068;4.414;2022-12-20T05:42:41;5.53;;;2.53;;
26965;SDS011;14522;52.068;4.414;2022-12-20T05:45:21;6.63;;;1.90;;
26965;SDS011;14522;52.068;4.414;2022-12-20T05:47:47;5.55;;;1.60;;
26965;SDS011;14522;52.068;4.414;2022-12-20T05:50:14;3.65;;;1.75;;
26965;SDS011;14522;52.068;4.414;2022-12-20T05:52:44;6.07;;;1.70;;
26965;SDS011;14522;52.068;4.414;2022-12-20T05:55:12;3.28;;;1.50;;
26965;SDS011;14522;52.068;4.414;2022-12-20T05:57:39;4.95;;;1.63;;
26965;SDS011;14522;52.068;4.414;2022-12-20T06:00:05;2.83;;;1.40;;
26965;SDS011;14522;52.068;4.414;2022-12-20T06:02:33;5.60;;;2.00;;
26965;SDS011;14522;52.068;4.414;2022-12-20T06:05:00;4.13;;;1.40;;
26965;SDS011;14522;52.068;4.414;2022-12-20T06:07:29;2.63;;;1.20;;
26965;SDS011;14522;52.068;4.414;2022-12-20T06:09:57;4.85;;;1.65;;
26965;SDS011;14522;52.068;4.414;2022-12-20T06:12:26;3.60;;;1.67;;
26965;SDS011;14522;52.068;4.414;2022-12-20T06:14:53;4.00;;;1.30;;
26965;SDS011;14522;52.068;4.414;2022-12-20T06:17:19;4.60;;;1.77;;
26965;SDS011;14522;52.068;4.414;2022-12-20T06:19:48;4.55;;;1.55;;
26965;SDS011;14522;52.068;4.414;2022-12-20T06:22:14;4.90;;;2.08;;
26965;SDS011;14522;52.068;4.414;2022-12-20T06:24:42;3.05;;;1.50;;
26965;SDS011;14522;52.068;4.414;2022-12-20T06:27:13;4.97;;;1.63;;
26965;SDS011;14522;52.068;4.414;2022-12-20T06:29:41;5.57;;;1.45;;
26965;SDS011;14522;52.068;4.414;2022-12-20T06:32:14;3.60;;;1.38;;
26965;SDS011;14522;52.068;4.414;2022-12-20T06:37:26;3.30;;;1.58;;
26965;SDS011;14522;52.068;4.414;2022-12-20T06:39:53;5.78;;;1.25;;
26965;SDS011;14522;52.068;4.414;2022-12-20T06:42:19;2.97;;;1.20;;
26965;SDS011;14522;52.068;4.414;2022-12-20T06:44:45;5.00;;;1.63;;
26965;SDS011;14522;52.068;4.414;2022-12-20T06:47:12;3.75;;;1.13;;
26965;SDS011;14522;52.068;4.414;2022-12-20T06:49:38;5.78;;;1.50;;
26965;SDS011;14522;52.068;4.414;2022-12-20T06:52:04;3.65;;;1.50;;
26965;SDS011;14522;52.068;4.414;2022-12-20T06:54:31;5.90;;;1.92;;
26965;SDS011;14522;52.068;4.414;2022-12-20T06:56:57;4.55;;;1.40;;
26965;SDS011;14522;52.068;4.414;2022-12-20T06:59:23;4.78;;;1.65;;
26965;SDS011;14522;52.068;4.414;2022-12-20T07:01:51;4.30;;;1.98;;
26965;SDS011;14522;52.068;4.414;2022-12-20T07:04:17;5.50;;;1.35;;
26965;SDS011;14522;52.068;4.414;2022-12-20T07:06:44;4.38;;;1.83;;
26965;SDS011;14522;52.068;4.414;2022-12-20T07:09:11;6.20;;;2.80;;
26965;SDS011;14522;52.068;4.414;2022-12-20T07:11:37;4.35;;;1.35;;
26965;SDS011;14522;52.068;4.414;2022-12-20T07:14:03;3.97;;;1.77;;
26965;SDS011;14522;52.068;4.414;2022-12-20T07:16:30;3.08;;;1.40;;
26965;SDS011;14522;52.068;4.414;2022-12-20T07:18:57;2.72;;;1.27;;
26965;SDS011;14522;52.068;4.414;2022-12-20T07:21:23;4.40;;;1.75;;
26965;SDS011;14522;52.068;4.414;2022-12-20T07:23:51;4.55;;;1.20;;
26965;SDS011;14522;52.068;4.414;2022-12-20T07:26:17;4.93;;;1.70;;
26965;SDS011;14522;52.068;4.414;2022-12-20T07:28:44;4.25;;;1.08;;
26965;SDS011;14522;52.068;4.414;2022-12-20T07:31:10;2.15;;;1.10;;
26965;SDS011;14522;52.068;4.414;2022-12-20T07:33:36;5.68;;;1.45;;
26965;SDS011;14522;52.068;4.414;2022-12-20T07:36:05;3.70;;;1.38;;
26965;SDS011;14522;52.068;4.414;2022-12-20T07:38:32;6.88;;;1.95;;
26965;SDS011;14522;52.068;4.414;2022-12-20T07:40:58;8.43;;;2.10;;
26965;SDS011;14522;52.068;4.414;2022-12-20T07:43:25;3.08;;;1.70;;
26965;SDS011;14522;52.068;4.414;2022-12-20T07:45:55;2.80;;;1.55;;
26965;SDS011;14522;52.068;4.414;2022-12-20T07:48:22;7.28;;;1.55;;
26965;SDS011;14522;52.068;4.414;2022-12-20T07:50:52;5.80;;;1.63;;
26965;SDS011;14522;52.068;4.414;2022-12-20T07:53:21;3.17;;;1.30;;
26965;SDS011;14522;52.068;4.414;2022-12-20T07:55:48;6.43;;;1.67;;
26965;SDS011;14522;52.068;4.414;2022-12-20T07:58:15;5.28;;;1.40;;
26965;SDS011;14522;52.068;4.414;2022-12-20T08:00:43;5.25;;;1.60;;
26965;SDS011;14522;52.068;4.414;2022-12-20T08:03:17;4.43;;;1.33;;
26965;SDS011;14522;52.068;4.414;2022-12-20T08:05:46;4.95;;;1.58;;
26965;SDS011;14522;52.068;4.414;2022-12-20T08:08:12;4.82;;;1.45;;
26965;SDS011;14522;52.068;4.414;2022-12-20T08:10:40;4.03;;;1.70;;
26965;SDS011;14522;52.068;4.414;2022-12-20T08:13:06;5.07;;;1.40;;
26965;SDS011;14522;52.068;4.414;2022-12-20T08:15:33;4.53;;;1.60;;
26965;SDS011;14522;52.068;4.414;2022-12-20T08:18:00;2.75;;;1.30;;
26965;SDS011;14522;52.068;4.414;2022-12-20T08:20:26;7.60;;;1.40;;
26965;SDS011;14522;52.068;4.414;2022-12-20T08:22:53;5.32;;;1.40;;
26965;SDS011;14522;52.068;4.414;2022-12-20T08:25:19;7.85;;;1.70;;
26965;SDS011;14522;52.068;4.414;2022-12-20T08:27:46;2.83;;;1.15;;
26965;SDS011;14522;52.068;4.414;2022-12-20T08:30:13;3.42;;;1.33;;
26965;SDS011;14522;52.068;4.414;2022-12-20T08:32:39;2.97;;;1.40;;
26965;SDS011;14522;52.068;4.414;2022-12-20T08:35:06;2.78;;;1.42;;
26965;SDS011;14522;52.068;4.414;2022-12-20T08:37:33;6.13;;;1.98;;
26965;SDS011;14522;52.068;4.414;2022-12-20T08:39:59;5.35;;;1.60;;
26965;SDS011;14522;52.068;4.414;2022-12-20T08:42:26;5.28;;;1.58;;
26965;SDS011;14522;52.068;4.414;2022-12-20T08:44:54;2.67;;;1.30;;
26965;SDS011;14522;52.068;4.414;2022-12-20T08:47:20;2.88;;;1.25;;
26965;SDS011;14522;52.068;4.414;2022-12-20T08:49:47;3.92;;;1.30;;
26965;SDS011;14522;52.068;4.414;2022-12-20T08:52:13;2.97;;;1.45;;
26965;SDS011;14522;52.068;4.414;2022-12-20T08:54:39;3.72;;;1.73;;
26965;SDS011;14522;52.068;4.414;2022-12-20T08:57:06;4.55;;;1.55;;
26965;SDS011;14522;52.068;4.414;2022-12-20T08:59:33;6.00;;;1.38;;
26965;SDS011;14522;52.068;4.414;2022-12-20T09:01:59;5.68;;;1.48;;
26965;SDS011;14522;52.068;4.414;2022-12-20T09:04:25;2.92;;;1.30;;
26965;SDS011;14522;52.068;4.414;2022-12-20T09:06:52;7.05;;;1.95;;
26965;SDS011;14522;52.068;4.414;2022-12-20T09:09:18;6.68;;;2.13;;
26965;SDS011;14522;52.068;4.414;2022-12-20T09:11:45;5.55;;;1.33;;
26965;SDS011;14522;52.068;4.414;2022-12-20T09:14:11;6.10;;;1.40;;
26965;SDS011;14522;52.068;4.414;2022-12-20T09:16:38;3.90;;;1.33;;
26965;SDS011;14522;52.068;4.414;2022-12-20T09:19:04;5.40;;;1.52;;
26965;SDS011;14522;52.068;4.414;2022-12-20T09:21:32;2.63;;;1.35;;
26965;SDS011;14522;52.068;4.414;2022-12-20T09:23:58;10.10;;;1.75;;
26965;SDS011;14522;52.068;4.414;2022-12-20T09:26:25;4.40;;;1.42;;
26965;SDS011;14522;52.068;4.414;2022-12-20T09:28:51;4.80;;;1.42;;
26965;SDS011;14522;52.068;4.414;2022-12-20T09:31:19;4.25;;;1.52;;
26965;SDS011;14522;52.068;4.414;2022-12-20T09:33:46;4.22;;;1.30;;
26965;SDS011;14522;52.068;4.414;2022-12-20T09:36:14;4.72;;;1.40;;
26965;SDS011;14522;52.068;4.414;2022-12-20T09:38:40;3.90;;;1.55;;
26965;SDS011;14522;52.068;4.414;2022-12-20T09:41:07;6.43;;;1.58;;
26965;SDS011;14522;52.068;4.414;2022-12-20T09:43:34;4.75;;;1.42;;
26965;SDS011;14522;52.068;4.414;2022-12-20T09:46:02;4.95;;;1.77;;
26965;SDS011;14522;52.068;4.414;2022-12-20T09:48:31;4.70;;;1.35;;
26965;SDS011;14522;52.068;4.414;2022-12-20T09:53:46;4.15;;;1.27;;
26965;SDS011;14522;52.068;4.414;2022-12-20T09:56:29;4.17;;;1.30;;
26965;SDS011;14522;52.068;4.414;2022-12-20T09:59:04;3.80;;;1.40;;
26965;SDS011;14522;52.068;4.414;2022-12-20T10:01:32;3.83;;;1.38;;
26965;SDS011;14522;52.068;4.414;2022-12-20T10:04:05;6.35;;;1.20;;
26965;SDS011;14522;52.068;4.414;2022-12-20T10:16:54;4.95;;;1.20;;
26965;SDS011;14522;52.068;4.414;2022-12-20T10:19:29;4.97;;;1.50;;
26965;SDS011;14522;52.068;4.414;2022-12-20T10:24:29;4.28;;;1.40;;
26965;SDS011;14522;52.068;4.414;2022-12-20T10:26:57;5.88;;;1.20;;
26965;SDS011;14522;52.068;4.414;2022-12-20T10:29:27;3.75;;;1.52;;
26965;SDS011;14522;52.068;4.414;2022-12-20T10:31:57;5.25;;;1.35;;
26965;SDS011;14522;52.068;4.414;2022-12-20T10:34:24;8.52;;;1.63;;
26965;SDS011;14522;52.068;4.414;2022-12-20T10:37:11;4.20;;;1.73;;
26965;SDS011;14522;52.068;4.414;2022-12-20T10:39:41;2.45;;;1.38;;
26965;SDS011;14522;52.068;4.414;2022-12-20T10:44:49;3.97;;;1.27;;
26965;SDS011;14522;52.068;4.414;2022-12-20T10:47:35;5.60;;;1.25;;
26965;SDS011;14522;52.068;4.414;2022-12-20T10:50:14;6.50;;;1.73;;
26965;SDS011;14522;52.068;4.414;2022-12-20T10:52:41;5.63;;;1.33;;
26965;SDS011;14522;52.068;4.414;2022-12-20T10:57:54;6.28;;;1.52;;
26965;SDS011;14522;52.068;4.414;2022-12-20T11:00:27;5.00;;;1.83;;
26965;SDS011;14522;52.068;4.414;2022-12-20T11:05:52;4.45;;;1.45;;
26965;SDS011;14522;52.068;4.414;2022-12-20T11:08:20;6.60;;;1.50;;
26965;SDS011;14522;52.068;4.414;2022-12-20T11:11:13;4.03;;;1.77;;
26965;SDS011;14522;52.068;4.414;2022-12-20T11:13:42;4.75;;;1.70;;
26965;SDS011;14522;52.068;4.414;2022-12-20T11:16:55;5.78;;;1.83;;
26965;SDS011;14522;52.068;4.414;2022-12-20T11:19:01;4.28;;;1.58;;
26965;SDS011;14522;52.068;4.414;2022-12-20T11:31:55;3.75;;;1.85;;
26965;SDS011;14522;52.068;4.414;2022-12-20T11:34:35;4.10;;;1.60;;
26965;SDS011;14522;52.068;4.414;2022-12-20T11:37:23;5.25;;;1.58;;
26965;SDS011;14522;52.068;4.414;2022-12-20T11:45:30;4.93;;;1.90;;
26965;SDS011;14522;52.068;4.414;2022-12-20T11:56:25;3.72;;;1.70;;
26965;SDS011;14522;52.068;4.414;2022-12-20T11:59:00;7.78;;;1.70;;
26965;SDS011;14522;52.068;4.414;2022-12-20T12:01:38;8.65;;;1.90;;
26965;SDS011;14522;52.068;4.414;2022-12-20T12:04:17;4.10;;;1.75;;
26965;SDS011;14522;52.068;4.414;2022-12-20T12:06:46;7.88;;;2.20;;
26965;SDS011;14522;52.068;4.414;2022-12-20T12:12:30;4.07;;;2.20;;
26965;SDS011;14522;52.068;4.414;2022-12-20T12:17:22;4.03;;;1.85;;
26965;SDS011;14522;52.068;4.414;2022-12-20T12:19:49;7.07;;;1.88;;
26965;SDS011;14522;52.068;4.414;2022-12-20T12:22:19;5.20;;;2.22;;
26965;SDS011;14522;52.068;4.414;2022-12-20T12:24:50;8.40;;;2.15;;
26965;SDS011;14522;52.068;4.414;2022-12-20T12:27:24;7.00;;;2.20;;
26965;SDS011;14522;52.068;4.414;2022-12-20T12:29:51;6.32;;;1.95;;
26965;SDS011;14522;52.068;4.414;2022-12-20T12:34:58;4.88;;;2.17;;
26965;SDS011;14522;52.068;4.414;2022-12-20T12:37:34;5.30;;;2.08;;
26965;SDS011;14522;52.068;4.414;2022-12-20T12:40:14;5.18;;;2.00;;
26965;SDS011;14522;52.068;4.414;2022-12-20T12:45:31;4.45;;;2.20;;
26965;SDS011;14522;52.068;4.414;2022-12-20T12:50:46;6.00;;;2.15;;
26965;SDS011;14522;52.068;4.414;2022-12-20T12:53:17;3.05;;;1.60;;
26965;SDS011;14522;52.068;4.414;2022-12-20T12:55:48;3.72;;;1.85;;
26965;SDS011;14522;52.068;4.414;2022-12-20T13:00:52;6.05;;;2.40;;
26965;SDS011;14522;52.068;4.414;2022-12-20T13:11:38;3.70;;;1.70;;
26965;SDS011;14522;52.068;4.414;2022-12-20T13:16:51;5.22;;;2.55;;
26965;SDS011;14522;52.068;4.414;2022-12-20T13:19:38;3.72;;;1.80;;
26965;SDS011;14522;52.068;4.414;2022-12-20T13:24:38;7.35;;;2.10;;
26965;SDS011;14522;52.068;4.414;2022-12-20T13:40:22;3.72;;;1.90;;
26965;SDS011;14522;52.068;4.414;2022-12-20T13:42:51;4.30;;;2.10;;
26965;SDS011;14522;52.068;4.414;2022-12-20T13:45:19;2.97;;;2.30;;
26965;SDS011;14522;52.068;4.414;2022-12-20T13:47:47;8.90;;;2.78;;
26965;SDS011;14522;52.068;4.414;2022-12-20T13:50:57;4.13;;;2.20;;
26965;SDS011;14522;52.068;4.414;2022-12-20T13:53:06;4.40;;;2.35;;
26965;SDS011;14522;52.068;4.414;2022-12-20T13:55:40;5.30;;;2.53;;
26965;SDS011;14522;52.068;4.414;2022-12-20T13:58:12;3.53;;;2.00;;
26965;SDS011;14522;52.068;4.414;2022-12-20T14:00:39;4.38;;;2.58;;
26965;SDS011;14522;52.068;4.414;2022-12-20T14:03:11;4.43;;;2.38;;
26965;SDS011;14522;52.068;4.414;2022-12-20T14:05:39;3.50;;;2.35;;
26965;SDS011;14522;52.068;4.414;2022-12-20T14:08:07;5.28;;;2.63;;
26965;SDS011;14522;52.068;4.414;2022-12-20T14:10:34;9.13;;;2.80;;
26965;SDS011;14522;52.068;4.414;2022-12-20T14:13:01;4.72;;;2.60;;
26965;SDS011;14522;52.068;4.414;2022-12-20T14:15:29;3.40;;;2.45;;
26965;SDS011;14522;52.068;4.414;2022-12-20T14:17:55;4.63;;;2.22;;
26965;SDS011;14522;52.068;4.414;2022-12-20T14:20:23;9.27;;;2.85;;
26965;SDS011;14522;52.068;4.414;2022-12-20T14:22:52;4.68;;;2.70;;
26965;SDS011;14522;52.068;4.414;2022-12-20T14:25:36;5.75;;;2.88;;
26965;SDS011;14522;52.068;4.414;2022-12-20T14:28:04;5.65;;;2.75;;
26965;SDS011;14522;52.068;4.414;2022-12-20T14:30:34;7.32;;;3.45;;
26965;SDS011;14522;52.068;4.414;2022-12-20T14:33:01;4.97;;;3.10;;
26965;SDS011;14522;52.068;4.414;2022-12-20T14:35:28;7.13;;;4.30;;
26965;SDS011;14522;52.068;4.414;2022-12-20T14:37:55;4.78;;;3.25;;
26965;SDS011;14522;52.068;4.414;2022-12-20T14:40:22;7.18;;;3.67;;
26965;SDS011;14522;52.068;4.414;2022-12-20T14:42:49;5.10;;;3.88;;
26965;SDS011;14522;52.068;4.414;2022-12-20T14:45:26;6.35;;;3.65;;
26965;SDS011;14522;52.068;4.414;2022-12-20T14:47:57;6.32;;;3.22;;
26965;SDS011;14522;52.068;4.414;2022-12-20T14:50:27;4.95;;;3.45;;
26965;SDS011;14522;52.068;4.414;2022-12-20T14:52:54;4.60;;;3.50;;
26965;SDS011;14522;52.068;4.414;2022-12-20T14:55:21;7.40;;;3.90;;
26965;SDS011;14522;52.068;4.414;2022-12-20T14:57:51;9.13;;;3.70;;
26965;SDS011;14522;52.068;4.414;2022-12-20T15:00:25;9.60;;;4.28;;
26965;SDS011;14522;52.068;4.414;2022-12-20T15:13:30;5.88;;;3.55;;
26965;SDS011;14522;52.068;4.414;2022-12-20T15:15:58;4.75;;;3.42;;
26965;SDS011;14522;52.068;4.414;2022-12-20T15:18:25;4.45;;;3.47;;
26965;SDS011;14522;52.068;4.414;2022-12-20T15:21:04;6.00;;;3.65;;
26965;SDS011;14522;52.068;4.414;2022-12-20T15:23:31;6.45;;;3.95;;
26965;SDS011;14522;52.068;4.414;2022-12-20T15:25:58;4.18;;;3.13;;
26965;SDS011;14522;52.068;4.414;2022-12-20T15:28:24;5.80;;;4.13;;
26965;SDS011;14522;52.068;4.414;2022-12-20T15:30:51;8.15;;;3.80;;
26965;SDS011;14522;52.068;4.414;2022-12-20T15:33:19;3.85;;;3.28;;
26965;SDS011;14522;52.068;4.414;2022-12-20T15:35:47;6.00;;;4.43;;
26965;SDS011;14522;52.068;4.414;2022-12-20T15:38:14;5.18;;;3.80;;
26965;SDS011;14522;52.068;4.414;2022-12-20T15:40:42;8.15;;;4.15;;
26965;SDS011;14522;52.068;4.414;2022-12-20T15:43:13;6.50;;;4.18;;
26965;SDS011;14522;52.068;4.414;2022-12-20T15:45:40;5.90;;;3.80;;
26965;SDS011;14522;52.068;4.414;2022-12-20T15:48:17;5.13;;;3.70;;
26965;SDS011;14522;52.068;4.414;2022-12-20T15:50:47;5.70;;;3.70;;
26965;SDS011;14522;52.068;4.414;2022-12-20T15:53:14;5.32;;;3.53;;
26965;SDS011;14522;52.068;4.414;2022-12-20T15:55:41;5.13;;;3.63;;
26965;SDS011;14522;52.068;4.414;2022-12-20T15:58:08;6.32;;;3.45;;
26965;SDS011;14522;52.068;4.414;2022-12-20T16:00:38;4.63;;;3.38;;
26965;SDS011;14522;52.068;4.414;2022-12-20T16:03:16;7.72;;;4.30;;
26965;SDS011;14522;52.068;4.414;2022-12-20T16:05:43;7.97;;;3.65;;
26965;SDS011;14522;52.068;4.414;2022-12-20T16:08:10;5.55;;;3.60;;
26965;SDS011;14522;52.068;4.414;2022-12-20T16:10:36;5.55;;;3.40;;
26965;SDS011;14522;52.068;4.414;2022-12-20T16:13:03;3.70;;;3.25;;
26965;SDS011;14522;52.068;4.414;2022-12-20T16:15:29;5.57;;;3.70;;
26965;SDS011;14522;52.068;4.414;2022-12-20T16:17:56;5.22;;;3.65;;
26965;SDS011;14522;52.068;4.414;2022-12-20T16:20:22;5.72;;;3.55;;
26965;SDS011;14522;52.068;4.414;2022-12-20T16:22:48;5.95;;;3.75;;
26965;SDS011;14522;52.068;4.414;2022-12-20T16:25:31;5.50;;;3.53;;
26965;SDS011;14522;52.068;4.414;2022-12-20T16:27:58;4.53;;;3.92;;
26965;SDS011;14522;52.068;4.414;2022-12-20T16:30:24;4.38;;;3.90;;
26965;SDS011;14522;52.068;4.414;2022-12-20T16:32:51;6.55;;;4.65;;
26965;SDS011;14522;52.068;4.414;2022-12-20T16:35:28;5.90;;;4.20;;
26965;SDS011;14522;52.068;4.414;2022-12-20T16:37:55;4.68;;;3.83;;
26965;SDS011;14522;52.068;4.414;2022-12-20T16:40:23;5.88;;;4.53;;
26965;SDS011;14522;52.068;4.414;2022-12-20T16:42:49;6.05;;;4.65;;
26965;SDS011;14522;52.068;4.414;2022-12-20T16:45:16;5.88;;;4.45;;
26965;SDS011;14522;52.068;4.414;2022-12-20T16:47:44;4.63;;;4.05;;
26965;SDS011;14522;52.068;4.414;2022-12-20T16:50:11;5.13;;;4.18;;
26965;SDS011;14522;52.068;4.414;2022-12-20T16:52:37;5.68;;;4.85;;
26965;SDS011;14522;52.068;4.414;2022-12-20T16:55:04;6.30;;;5.32;;
26965;SDS011;14522;52.068;4.414;2022-12-20T16:57:31;6.85;;;5.00;;
26965;SDS011;14522;52.068;4.414;2022-12-20T16:59:57;10.88;;;5.40;;